LPMALPFR

Guest
Details From LPMA - Madeira
To LPFR - Faro
Flight Number -
Tags Generated
Created
Modified
Stats Distance 505 nm / 936 km
Max Altitude 0 ft / 0 m
Waypoints 3
Social Downloads 5
Likes 0
Share VATSIM

Download

Looking for another format? Having issues loading an existing format? Contact us
Advertisement - Login to hide

Notes

Generated

Route

LPMA VFA10 LPFR

ID Type Via Altitude Latitude Longitude Leg Dist Tot Dist Heading (true) Name
O LPMA APT - 0 ft / 0 m 32.68900˚ -16.78409˚ - 0 nm - -
VFA10 FIX - 0 ft / 0 m 37.01784˚ -7.99512˚ 504 nm 504 nm 57° / 62° -
O LPFR APT - 0 ft / 0 m 37.01729˚ -7.98609˚ 0 nm 505 nm 94° / 94° -

Altitude Profile

Advertisement - Login to hide

Weather


0- 5 10 15 20 25 30 35+ Temperature / ° C

Clouds and Precipitation
Forecast for 2018-05-22 00:00 UTC. Updated 11 minutes ago

Ground ~20,000 ft ~40,000 ft Winds

LPMA

Details ICAO LPMA (FNC)
Name Madeira
Region Portugal
Timezone Atlantic/Madeira (UTC+1.0)
Stats Elevation 192 ft / 59 m (AMSL)
Location 32.697704° -16.774449°
Runways 1
Magnetic Variation 4.928° W

METAR

LPMA 212330Z 21006KT 9999 SCT015 18/17 Q1016

Decode

TAF

TAF LPMA 211700Z 2118/2218 VRB05KT 9999 SCT015 BECMG 2118/2120 BKN015 TEMPO 2120/2203 6000 -RADZ SCT008 BKN013 BECMG 2200/2202 35008KT BECMG 2210/2212 SCT015 BKN030

Decode

Departure Runways

ID Width Length Bearing (true) Bearing (mag) Surface Threshold Offset Overrun Length
05 141 ft / 43 m 8,683 ft / 2,647 m 42.98° 47.91° Asphalt 472 ft / 144 m 0 ft / 0 m
23 141 ft / 43 m 8,683 ft / 2,647 m 222.99° 227.92° Asphalt 466 ft / 142 m 0 ft / 0 m

LPFR

Details ICAO LPFR (FAO)
Name Faro
Region Portugal
Timezone Europe/Lisbon (UTC+1.0)
Stats Elevation 24 ft / 7 m (AMSL)
Location 37.015336° -7.972327°
Runways 1
Magnetic Variation 1.884° W

METAR

LPFR 212330Z 27008KT CAVOK 15/13 Q1013

Decode

TAF

TAF LPFR 211700Z 2118/2218 26015KT 9999 FEW015 BECMG 2120/2122 29010KT BECMG 2201/2203 34005KT SCT015 BECMG 2210/2212 20008KT FEW020 BECMG 2215/2217 26012KT

Decode

Destination Runways

ID Width Length Bearing (true) Bearing (mag) Surface Threshold Offset Overrun Length
10 148 ft / 45 m 8,148 ft / 2,484 m 100.08° 101.96° Asphalt 148 ft / 45 m 0 ft / 0 m
28 148 ft / 45 m 8,148 ft / 2,484 m 280.10° 281.98° Asphalt 148 ft / 45 m 0 ft / 0 m

Approach Navaids

Runway Type Ident Frequency Range Bearing (true) Bearing (mag) Slope Elevation
28 Localiser IIF 109.50 MHz 18 nm / 33 km 280.16° 282.05° - 24 ft / 7 m (AMSL)
28 Glidescope IIF 109.50 MHz 10 nm / 19 km 280.09° 281.97° 3.00° 24 ft / 7 m (AMSL)
28 DME IIF 109.50 MHz 18 nm / 33 km - - - 24 ft / 7 m (AMSL)

Popular Alternatives